This is the latest recevied weather packets stored in our database for station/object KB8DOA. If no packets are shown the sender has not sent any weather packets the latest 10 day(s).
| Time | Temp. | Humidity | Pressure | Rain* | Wind** | Luminosity | Snow |
|---|---|---|---|---|---|---|---|
| 1777617605 | 22.78° C | 84% | 1012.6 hPa | 0 mm | - | 0 W/m² | - |
| 1777617304 | 22.78° C | 84% | 1012.7 hPa | 0 mm | - | 0 W/m² | - |
| 1777616703 | 22.78° C | 83% | 1012.5 hPa | 0 mm | - | 0 W/m² | - |
| 1777614604 | 23.33° C | 80% | 1012.1 hPa | 0 mm | - | 0 W/m² | - |
| 1777614304 | 23.33° C | 79% | 1012.1 hPa | 0 mm | - | 0 W/m² | - |
| 1777607404 | 25.56° C | 74% | 1011.5 hPa | 0 mm | - | 0 W/m² | - |
| 1777607104 | 25.56° C | 74% | 1011.5 hPa | 0 mm | - | 0 W/m² | - |
| 1777605603 | 26.11° C | 72% | 1010.9 hPa | 0 mm | - | 0 W/m² | - |
| 1777605004 | 26.11° C | 72% | 1010.7 hPa | 0 mm | - | 0 W/m² | - |
| 1777602904 | 27.22° C | 70% | 1010.7 hPa | 0 mm | - | 0 W/m² | - |
| 1777602003 | 27.22° C | 69% | 1010.6 hPa | 0 mm | - | 0 W/m² | - |
| 1777601703 | 27.22° C | 68% | 1010.7 hPa | 0 mm | - | 0 W/m² | - |
| 1777598404 | 27.78° C | 68% | 1010.6 hPa | 0 mm | - | 0 W/m² | - |
| 1777597803 | 27.22° C | 71% | 1010.3 hPa | 0 mm | - | 0 W/m² | - |
| 1777596004 | 27.22° C | 71% | 1009.7 hPa | 0 mm | - | 0 W/m² | - |
| 1777595104 | 27.22° C | 71% | 1009.6 hPa | 0 mm | - | 0 W/m² | - |
| 1777594803 | 27.22° C | 71% | 1009.6 hPa | 0 mm | - | 0 W/m² | - |
| 1777593604 | 27.78° C | 70% | 1009.5 hPa | 0 mm | - | 0 W/m² | - |
| 1777593303 | 27.78° C | 69% | 1009.5 hPa | 0 mm | - | 0 W/m² | - |
| 1777592104 | 27.78° C | 69% | 1009.4 hPa | 0 mm | - | 0 W/m² | - |
| 1777590304 | 27.78° C | 71% | 1009.1 hPa | 0 mm | - | 0 W/m² | - |
| 1777588504 | 27.78° C | 66% | 1008.9 hPa | 0 mm | - | 0 W/m² | - |
| 1777587904 | 27.78° C | 65% | 1009.6 hPa | 0 mm | - | 0 W/m² | - |
| 1777585204 | 28.33° C | 65% | 1009.9 hPa | 0 mm | - | 0 W/m² | - |
| 1777578005 | 28.33° C | 68% | 1010 hPa | 0 mm | - | 0 W/m² | - |
* Rain latest hour (hover to see other rain measurements)
** Current wind speed in m/s (hover to see current wind gust speed)